You are listening to:
RJAA ATIS - Tokyo, Japan

RJAA 231100Z 07006KT 030V100 9999 FEW015 BKN060 17/13 Q1018 BECMG 05005KT

If stream doesn't start automatically press the play button
If stream stops then reload player then press play